Time;durP1;ratioP1;P1;durP2;ratioP2;P2;SDS_P1;SDS_P2;PMS_P1;PMS_P2;Temp;Humidity;BMP_temperature;BMP_pressure;BME280_temperature;BME280_humidity;BME280_pressure;Samples;Min_cycle;Max_cycle;Signal;HPM_P1;HPM_P2
2022/06/25 00:09:47;;;;;;;6.15;1.30;;;;;;;17.28;100.00;97788.88;15280000;19;20031;-61
2022/06/25 00:14:55;;;;;;;8.27;1.20;;;;;;;17.23;100.00;97793.06;15285421;19;20018;-62
2022/06/25 00:20:01;;;;;;;3.55;1.00;;;;;;;17.20;100.00;97803.56;15278964;19;20024;-61
2022/06/25 00:25:07;;;;;;;4.75;0.95;;;;;;;17.16;100.00;97803.19;15286285;19;20014;-63
2022/06/25 00:30:15;;;;;;;5.85;0.90;;;;;;;17.17;100.00;97815.75;15277849;19;20018;-61
2022/06/25 00:35:21;;;;;;;2.78;0.80;;;;;;;17.21;100.00;97803.38;15284339;19;20364;-61
2022/06/25 00:40:26;;;;;;;3.22;0.90;;;;;;;17.19;100.00;97808.19;15281243;19;20014;-61
2022/06/25 00:45:33;;;;;;;3.45;0.88;;;;;;;17.17;100.00;97814.94;15281492;19;20022;-60
2022/06/25 00:50:38;;;;;;;3.33;0.75;;;;;;;17.13;100.00;97813.69;15282638;19;20043;-62
2022/06/25 00:55:48;;;;;;;4.07;0.80;;;;;;;17.08;100.00;97831.50;15282176;19;20050;-62
2022/06/25 01:00:55;;;;;;;1.50;0.50;;;;;;;17.02;100.00;97828.81;15275355;19;20379;-62
2022/06/25 01:06:01;;;;;;;4.50;0.60;;;;;;;17.04;100.00;97826.69;15280971;19;20097;-59
2022/06/25 01:11:10;;;;;;;3.03;0.73;;;;;;;17.05;100.00;97845.53;15280218;19;20515;-60
2022/06/25 01:16:18;;;;;;;2.85;0.70;;;;;;;17.08;100.00;97836.13;15277058;19;20018;-62
2022/06/25 01:21:23;;;;;;;2.80;0.60;;;;;;;17.03;100.00;97852.25;15281814;19;20089;-61
2022/06/25 01:26:35;;;;;;;2.63;0.50;;;;;;;17.05;100.00;97850.16;15280189;19;20014;-58
2022/06/25 01:31:40;;;;;;;2.15;0.50;;;;;;;17.10;100.00;97861.22;15272358;19;20043;-63
2022/06/25 01:36:45;;;;;;;2.17;0.60;;;;;;;17.09;100.00;97859.56;15277328;19;20035;-59
2022/06/25 01:41:52;;;;;;;1.83;0.47;;;;;;;17.10;100.00;97863.94;15278524;19;20014;-60
2022/06/25 01:46:57;;;;;;;2.67;0.60;;;;;;;17.10;100.00;97858.50;15272055;19;20043;-59
2022/06/25 01:52:03;;;;;;;1.85;0.50;;;;;;;17.05;100.00;97869.19;15278604;19;20010;-62
2022/06/25 01:57:11;;;;;;;2.63;0.43;;;;;;;17.01;100.00;97870.66;15277187;19;20042;-60
2022/06/25 02:02:16;;;;;;;1.77;0.47;;;;;;;16.99;100.00;97864.63;15277522;19;20014;-57
2022/06/25 02:07:21;;;;;;;1.58;0.47;;;;;;;17.01;100.00;97870.66;15270671;19;20053;-56
2022/06/25 02:12:29;;;;;;;1.73;0.40;;;;;;;17.02;100.00;97880.50;15278740;19;20588;-54
2022/06/25 02:17:34;;;;;;;0.63;0.40;;;;;;;17.07;100.00;97886.97;15269542;19;20375;-61
2022/06/25 02:22:43;;;;;;;0.65;0.40;;;;;;;17.10;100.00;97891.16;15275026;19;20011;-56
2022/06/25 02:27:50;;;;;;;0.82;0.40;;;;;;;17.10;100.00;97892.00;15273919;19;20014;-56
2022/06/25 02:32:55;;;;;;;1.20;0.45;;;;;;;17.10;100.00;97891.16;15275552;19;20050;-55
2022/06/25 02:38:01;;;;;;;0.98;0.30;;;;;;;17.07;100.00;97897.84;15265200;19;20010;-56
2022/06/25 02:43:12;;;;;;;2.00;0.40;;;;;;;17.04;100.00;97890.16;15283372;19;20032;-53
2022/06/25 02:48:21;;;;;;;2.75;0.60;;;;;;;16.90;100.00;97900.19;15027069;19;5001349;-52
2022/06/25 02:53:26;;;;;;;3.72;0.50;;;;;;;16.83;100.00;97904.84;15292834;19;20018;-54
2022/06/25 03:03:58;;;;;;;2.03;0.60;;;;;;;16.78;100.00;97915.50;15291936;19;20538;-59
2022/06/25 03:09:05;;;;;;;1.60;0.40;;;;;;;16.77;100.00;97913.84;15274692;19;20022;-59
2022/06/25 03:14:13;;;;;;;1.00;0.43;;;;;;;16.81;100.00;97915.09;15290076;19;20116;-60
2022/06/25 03:19:19;;;;;;;1.52;0.52;;;;;;;16.82;100.00;97922.22;15283304;19;20007;-60
2022/06/25 03:24:50;;;;;;;1.48;0.50;;;;;;;16.82;100.00;97927.66;15283693;19;20052;-62
2022/06/25 03:29:58;;;;;;;2.92;0.52;;;;;;;16.78;100.00;97938.13;15287753;19;20031;-58
2022/06/25 03:35:04;;;;;;;2.17;0.55;;;;;;;16.77;100.00;97932.88;15288109;19;20530;-60
2022/06/25 03:40:11;;;;;;;2.35;0.60;;;;;;;16.67;100.00;97943.38;15282167;19;20082;-62
2022/06/25 03:45:26;;;;;;;2.95;0.63;;;;;;;16.66;100.00;97938.97;15280233;19;20021;-58
2022/06/25 03:50:33;;;;;;;1.73;0.60;;;;;;;16.61;100.00;97954.06;15285114;19;20019;-60
2022/06/25 03:55:38;;;;;;;1.88;0.50;;;;;;;16.57;100.00;97952.81;15277935;19;20018;-62
2022/06/25 04:00:59;;;;;;;1.75;0.50;;;;;;;16.56;100.00;97956.56;15279557;19;20519;-60
2022/06/25 04:06:05;;;;;;;0.60;0.50;;;;;;;16.59;100.00;97960.75;15286033;19;20018;-60
2022/06/25 04:11:33;;;;;;;1.73;0.60;;;;;;;16.65;100.00;97968.06;15286135;19;20025;-60
2022/06/25 04:16:42;;;;;;;1.65;0.50;;;;;;;16.69;100.00;97977.50;15277333;19;20014;-60
2022/06/25 04:21:51;;;;;;;1.95;0.60;;;;;;;16.67;100.00;97990.47;15283724;19;20010;-60
2022/06/25 04:26:56;;;;;;;1.58;0.60;;;;;;;16.64;100.00;97994.41;15277621;19;20474;-60
2022/06/25 04:32:03;;;;;;;2.55;0.50;;;;;;;16.63;100.00;97998.22;15281576;19;20038;-56
2022/06/25 04:37:28;;;;;;;1.85;0.60;;;;;;;16.69;100.00;97998.41;15282584;19;20014;-55
2022/06/25 04:42:35;;;;;;;0.93;0.52;;;;;;;16.76;100.00;98012.81;15280530;19;20022;-55
2022/06/25 04:47:42;;;;;;;2.45;0.70;;;;;;;16.83;100.00;98016.38;15274626;19;20010;-53
2022/06/25 04:53:07;;;;;;;1.50;0.52;;;;;;;16.99;100.00;98022.47;15285702;19;20019;-53
2022/06/25 04:58:12;;;;;;;1.10;0.40;;;;;;;17.16;100.00;98020.94;15272108;19;20010;-54
2022/06/25 05:03:46;;;;;;;1.20;0.60;;;;;;;17.39;100.00;98017.72;15284875;19;20017;-61
2022/06/25 05:08:51;;;;;;;1.17;0.50;;;;;;;17.53;100.00;98020.38;15276773;19;20018;-58
2022/06/25 05:13:57;;;;;;;1.35;0.60;;;;;;;17.62;100.00;98024.53;15281604;19;20021;-60
2022/06/25 05:19:06;;;;;;;1.25;0.52;;;;;;;17.75;100.00;98033.72;15269851;19;20546;-60
2022/06/25 05:24:11;;;;;;;0.80;0.60;;;;;;;17.86;100.00;98031.13;15281707;19;20006;-61
2022/06/25 05:29:16;;;;;;;1.02;0.50;;;;;;;17.99;100.00;98029.41;15279991;19;20022;-62
2022/06/25 05:34:24;;;;;;;1.67;0.68;;;;;;;18.17;100.00;98032.22;15270603;19;20105;-64
2022/06/25 05:39:29;;;;;;;1.85;0.80;;;;;;;18.39;100.00;98040.06;15277645;19;20018;-63
2022/06/25 05:44:35;;;;;;;2.42;0.75;;;;;;;18.56;100.00;98034.03;15279784;19;20019;-62
2022/06/25 05:49:43;;;;;;;1.80;0.65;;;;;;;18.76;100.00;98033.84;15274649;19;20050;-63
2022/06/25 05:54:48;;;;;;;1.88;0.60;;;;;;;18.99;100.00;98036.00;15280919;19;20007;-63
2022/06/25 05:59:53;;;;;;;3.28;0.60;;;;;;;19.23;100.00;98044.31;15277424;19;20015;-62
2022/06/25 06:05:00;;;;;;;0.75;0.60;;;;;;;19.40;100.00;98039.94;15274207;19;20010;-62
2022/06/25 06:10:07;;;;;;;0.70;0.60;;;;;;;19.54;100.00;98042.53;15276380;19;20025;-63
2022/06/25 06:15:13;;;;;;;0.50;0.50;;;;;;;19.59;100.00;98048.13;15278430;19;20050;-61
2022/06/25 06:20:21;;;;;;;4.30;0.60;;;;;;;19.57;100.00;98050.28;15271155;19;20062;-62
2022/06/25 06:25:26;;;;;;;2.58;0.68;;;;;;;19.70;100.00;98052.81;15270119;19;20038;-63
2022/06/25 06:30:31;;;;;;;0.95;0.60;;;;;;;19.72;100.00;98049.88;15276879;19;20022;-62
2022/06/25 06:35:42;;;;;;;3.70;0.70;;;;;;;19.66;100.00;98059.81;15271346;19;20010;-63
2022/06/25 06:40:47;;;;;;;0.70;0.50;;;;;;;19.66;100.00;98062.56;15273837;19;20455;-62
2022/06/25 06:45:52;;;;;;;1.23;0.70;;;;;;;19.70;100.00;98082.06;15274980;19;20018;-63
2022/06/25 06:51:01;;;;;;;3.15;0.60;;;;;;;19.75;100.00;98074.00;15277319;19;20015;-61
2022/06/25 06:56:07;;;;;;;1.30;0.60;;;;;;;19.89;100.00;98080.16;15269940;19;20017;-60
2022/06/25 07:01:15;;;;;;;0.82;0.57;;;;;;;19.90;100.00;98076.38;15273031;19;20366;-60
2022/06/25 07:06:24;;;;;;;1.38;0.60;;;;;;;20.03;100.00;98072.63;15270817;19;20102;-61
2022/06/25 07:11:32;;;;;;;1.75;0.80;;;;;;;20.18;100.00;98083.13;15272168;19;20034;-58
2022/06/25 07:16:40;;;;;;;0.90;0.70;;;;;;;20.29;100.00;98079.59;15272702;19;20038;-59
2022/06/25 07:21:48;;;;;;;1.33;0.70;;;;;;;20.33;100.00;98074.53;15269326;19;20098;-61
2022/06/25 07:26:54;;;;;;;1.02;0.70;;;;;;;20.30;100.00;98080.44;15266677;19;20018;-62
2022/06/25 07:31:59;;;;;;;1.05;0.60;;;;;;;20.37;100.00;98085.81;15281106;19;20019;-59
2022/06/25 07:37:09;;;;;;;3.85;0.70;;;;;;;20.50;100.00;98074.69;15285861;19;20035;-58
2022/06/25 07:42:15;;;;;;;1.77;0.80;;;;;;;20.61;100.00;98068.41;15277254;19;20092;-62
2022/06/25 07:47:20;;;;;;;3.38;0.80;;;;;;;20.82;100.00;98057.97;15279900;19;20071;-59
2022/06/25 07:52:28;;;;;;;1.55;0.70;;;;;;;20.93;100.00;98059.88;15285490;19;20672;-59
2022/06/25 07:57:33;;;;;;;1.17;0.65;;;;;;;21.08;100.00;98059.41;15281355;19;20015;-60
2022/06/25 08:02:40;;;;;;;1.08;0.70;;;;;;;21.14;100.00;98062.25;15276187;19;20018;-59
2022/06/25 08:07:49;;;;;;;1.30;0.73;;;;;;;21.27;100.00;98056.53;15283727;19;20117;-55
2022/06/25 08:12:54;;;;;;;1.80;0.70;;;;;;;21.25;100.00;98064.97;15281752;19;20037;-60
2022/06/25 08:17:59;;;;;;;2.40;0.80;;;;;;;21.39;100.00;98060.09;15282057;19;20003;-59
2022/06/25 08:23:07;;;;;;;0.73;0.57;;;;;;;21.52;100.00;98060.91;15284974;19;20025;-59
2022/06/25 08:28:12;;;;;;;1.38;0.55;;;;;;;21.70;100.00;98059.91;15281026;19;20023;-54
2022/06/25 08:33:18;;;;;;;1.17;0.52;;;;;;;21.85;100.00;98059.41;14763955;19;10000636;-58
2022/06/25 08:38:26;;;;;;;1.00;0.70;;;;;;;21.92;100.00;98053.78;15280605;19;20025;-59
2022/06/25 08:43:31;;;;;;;3.45;0.70;;;;;;;22.13;100.00;98068.72;15282075;19;20007;-60
2022/06/25 08:48:37;;;;;;;3.17;0.90;;;;;;;21.91;100.00;98074.06;15276843;19;20045;-57
2022/06/25 08:53:48;;;;;;;1.63;0.73;;;;;;;22.00;100.00;98064.38;15283799;19;20039;-58
2022/06/25 08:58:53;;;;;;;1.20;0.65;;;;;;;22.12;100.00;98067.91;15275933;19;20018;-58
2022/06/25 09:03:59;;;;;;;6.13;0.80;;;;;;;22.25;100.00;98066.75;15276827;19;20086;-61
2022/06/25 09:09:15;;;;;;;2.28;0.80;;;;;;;22.32;100.00;98061.09;15277539;19;20025;-59
2022/06/25 09:14:25;;;;;;;1.85;0.80;;;;;;;22.35;100.00;98057.03;15282046;19;20018;-60
2022/06/25 09:19:32;;;;;;;1.58;0.68;;;;;;;22.45;100.00;98049.84;15269209;19;20043;-60
2022/06/25 09:24:48;;;;;;;1.67;0.70;;;;;;;22.61;100.00;98050.94;15279924;19;20101;-58
2022/06/25 09:29:53;;;;;;;0.70;0.70;;;;;;;22.76;100.00;98044.84;15280576;19;20018;-59
2022/06/25 09:34:58;;;;;;;2.50;0.73;;;;;;;22.81;100.00;98057.03;15277292;19;20011;-59
2022/06/25 09:40:20;;;;;;;0.93;0.50;;;;;;;22.82;100.00;98053.19;15277425;19;20082;-58
2022/06/25 09:45:26;;;;;;;1.25;0.80;;;;;;;22.96;100.00;98060.00;15278718;19;20026;-59
2022/06/25 09:50:31;;;;;;;1.33;0.70;;;;;;;23.01;100.00;98051.84;15270979;19;20022;-60
2022/06/25 09:55:40;;;;;;;0.60;0.60;;;;;;;23.06;100.00;98056.56;15270515;19;20427;-58
2022/06/25 10:00:48;;;;;;;1.98;0.60;;;;;;;23.20;100.00;98048.84;15273757;19;20018;-58
2022/06/25 10:05:56;;;;;;;1.15;0.50;;;;;;;23.24;100.00;98039.84;15275861;19;20435;-59
2022/06/25 10:11:10;;;;;;;0.82;0.45;;;;;;;23.35;100.00;98046.31;15268638;19;20010;-60
2022/06/25 10:16:18;;;;;;;0.60;0.47;;;;;;;23.40;100.00;98048.31;15276171;19;20011;-59
2022/06/25 10:21:25;;;;;;;0.65;0.38;;;;;;;23.61;100.00;98030.16;15268765;19;20022;-59
2022/06/25 10:26:34;;;;;;;0.32;0.30;;;;;;;23.62;100.00;98029.06;15274744;19;20015;-59
2022/06/25 10:31:39;;;;;;;0.80;0.30;;;;;;;23.84;100.00;98031.81;15268068;19;20082;-60
2022/06/25 10:36:47;;;;;;;1.58;0.43;;;;;;;24.07;100.00;98043.63;15272557;19;20022;-59
2022/06/25 10:47:44;;;;;;;0.75;0.30;;;;;;;24.17;100.00;98031.88;15269406;19;20018;-60
2022/06/25 10:53:19;;;;;;;0.75;0.40;;;;;;;24.23;100.00;98028.09;15269900;19;20010;-61
2022/06/25 10:58:26;;;;;;;0.70;0.40;;;;;;;24.34;100.00;98017.19;15269122;19;20027;-59
2022/06/25 11:03:53;;;;;;;0.75;0.30;;;;;;;24.32;100.00;98014.72;15279104;19;20020;-59
2022/06/25 11:09:06;;;;;;;0.98;0.47;;;;;;;24.42;100.00;98011.19;15284023;19;20502;-59
2022/06/25 11:19:57;;;;;;;0.90;0.40;;;;;;;24.66;95.95;98016.34;15287319;19;19987;-60
2022/06/25 11:30:23;;;;;;;0.45;0.28;;;;;;;25.05;87.46;98010.59;15288484;19;20010;-58
2022/06/25 11:35:43;;;;;;;1.25;0.50;;;;;;;25.20;75.81;98005.19;15289361;19;20014;-59
2022/06/25 11:40:50;;;;;;;0.80;0.40;;;;;;;25.44;95.91;98001.19;15285195;19;20426;-59
2022/06/25 11:45:57;;;;;;;0.70;0.35;;;;;;;25.63;94.90;97996.00;15277096;19;20037;-60
2022/06/25 11:51:07;;;;;;;2.60;0.40;;;;;;;25.58;83.79;98009.81;15283822;19;20349;-59
2022/06/25 11:56:16;;;;;;;0.73;0.30;;;;;;;25.54;91.45;98002.06;15280817;19;20038;-60
2022/06/25 12:01:21;;;;;;;0.38;0.30;;;;;;;25.66;90.30;98003.75;15278168;19;20293;-58
2022/06/25 12:06:28;;;;;;;0.30;0.20;;;;;;;25.79;92.16;97996.88;15280722;19;20469;-60
2022/06/25 12:11:34;;;;;;;0.65;0.30;;;;;;;26.04;83.87;98001.66;15280793;19;20018;-60
2022/06/25 12:16:46;;;;;;;0.38;0.20;;;;;;;26.07;70.70;98000.28;15275558;19;20351;-58
2022/06/25 12:21:53;;;;;;;1.40;0.30;;;;;;;25.91;74.78;97994.72;15281833;19;20421;-62
2022/06/25 12:27:00;;;;;;;0.38;0.30;;;;;;;26.04;77.34;97987.84;15281234;19;20010;-60
2022/06/25 12:32:06;;;;;;;0.40;0.20;;;;;;;26.31;81.87;97981.28;15275319;19;20020;-57
2022/06/25 12:37:28;;;;;;;1.17;0.30;;;;;;;26.81;80.13;97983.50;15279502;19;20017;-58
2022/06/25 12:42:34;;;;;;;0.38;0.20;;;;;;;26.76;83.33;97973.25;15278648;19;20011;-59
2022/06/25 12:47:43;;;;;;;0.80;0.40;;;;;;;26.82;73.05;97982.41;15279224;19;20082;-58
2022/06/25 12:52:51;;;;;;;0.95;0.50;;;;;;;26.99;78.72;97974.59;15277661;19;20494;-57
2022/06/25 12:57:58;;;;;;;0.85;0.35;;;;;;;27.15;79.64;97980.94;15280508;19;20701;-59
2022/06/25 13:03:04;;;;;;;1.17;0.30;;;;;;;27.25;81.34;97974.53;15271698;19;20006;-59
2022/06/25 13:08:13;;;;;;;1.02;0.40;;;;;;;27.21;71.96;97976.22;15278330;19;20010;-59
2022/06/25 13:13:18;;;;;;;1.27;0.32;;;;;;;27.42;69.50;97981.69;15280856;19;20061;-60
2022/06/25 13:18:30;;;;;;;1.17;0.40;;;;;;;27.25;68.20;97980.06;15276166;19;20031;-58
2022/06/25 13:23:38;;;;;;;1.20;0.45;;;;;;;27.11;72.25;97979.03;15269543;19;20022;-60
2022/06/25 13:28:43;;;;;;;1.10;0.30;;;;;;;26.71;72.10;97973.25;15271718;19;20007;-60
2022/06/25 13:33:49;;;;;;;0.57;0.30;;;;;;;26.67;68.63;97978.50;15276712;19;20018;-59
2022/06/25 13:38:57;;;;;;;1.67;0.47;;;;;;;26.40;68.99;97985.13;15272071;19;20022;-60
2022/06/25 13:44:02;;;;;;;1.63;0.30;;;;;;;26.45;66.36;97971.34;15275537;19;20395;-60
2022/06/25 13:49:08;;;;;;;0.47;0.20;;;;;;;27.26;72.88;97967.91;15271035;19;20027;-59
2022/06/25 13:54:17;;;;;;;0.75;0.30;;;;;;;27.83;61.91;97968.50;15271876;19;20094;-60
2022/06/25 13:59:22;;;;;;;0.35;0.25;;;;;;;28.00;63.16;97964.50;15275770;19;20023;-60
2022/06/25 14:04:28;;;;;;;0.60;0.32;;;;;;;28.17;59.72;97971.63;15277205;19;20013;-60
2022/06/25 14:09:37;;;;;;;0.30;0.20;;;;;;;28.29;63.53;97967.38;15270590;19;20014;-60
2022/06/25 14:14:43;;;;;;;0.57;0.35;;;;;;;28.36;61.09;97971.75;15278077;19;20633;-61
2022/06/25 14:19:48;;;;;;;0.50;0.30;;;;;;;28.46;58.08;97963.38;15274268;19;20018;-61
2022/06/25 14:30:14;;;;;;;0.65;0.40;;;;;;;28.36;57.55;97967.03;15272098;19;20022;-61
2022/06/25 14:35:20;;;;;;;0.20;0.20;;;;;;;28.29;59.26;97961.81;15277117;19;20014;-61
2022/06/25 14:45:48;;;;;;;0.85;0.30;;;;;;;29.51;57.49;97951.75;15272536;19;20014;-56
2022/06/25 14:50:53;;;;;;;1.80;0.30;;;;;;;29.78;56.15;97949.44;15272016;19;20018;-58
2022/06/25 14:56:01;;;;;;;0.57;0.20;;;;;;;29.44;51.20;97944.91;15276337;19;20014;-54
2022/06/25 15:01:07;;;;;;;0.50;0.30;;;;;;;29.62;54.96;97946.06;15264868;19;20022;-54
2022/06/25 15:06:12;;;;;;;1.20;0.30;;;;;;;29.27;52.04;97945.38;15272907;19;20078;-57
2022/06/25 15:11:20;;;;;;;0.38;0.20;;;;;;;28.72;51.78;97944.56;15265419;19;20018;-55
2022/06/25 15:16:26;;;;;;;0.60;0.20;;;;;;;28.82;53.92;97942.81;15271820;19;20031;-58
2022/06/25 15:21:31;;;;;;;0.30;0.20;;;;;;;28.80;52.72;97945.88;15268914;19;20022;-55
2022/06/25 15:26:42;;;;;;;1.55;0.30;;;;;;;28.62;51.37;97941.06;15271449;19;20049;-57
2022/06/25 15:31:47;;;;;;;1.75;0.30;;;;;;;28.52;54.43;97942.78;15260627;19;20010;-56
2022/06/25 15:36:58;;;;;;;0.63;0.20;;;;;;;28.69;52.25;97939.63;15271848;19;20034;-56
2022/06/25 15:42:06;;;;;;;2.30;0.20;;;;;;;28.68;53.58;97945.44;15268409;19;20412;-59
2022/06/25 15:47:11;;;;;;;0.82;0.32;;;;;;;28.55;53.61;97944.19;15267248;19;20014;-56
2022/06/25 15:52:16;;;;;;;1.83;0.20;;;;;;;28.63;54.94;97938.00;15275579;19;20007;-58
2022/06/25 15:57:24;;;;;;;1.13;0.20;;;;;;;28.68;53.08;97939.88;15287346;19;20030;-58
2022/06/25 16:02:29;;;;;;;0.43;0.28;;;;;;;28.82;53.71;97940.88;15275551;19;20085;-53
2022/06/25 16:07:34;;;;;;;0.45;0.30;;;;;;;29.01;53.82;97920.72;15285544;19;20027;-57
2022/06/25 16:12:43;;;;;;;0.45;0.30;;;;;;;29.46;54.37;97926.84;15277630;19;20014;-57
2022/06/25 16:17:48;;;;;;;0.52;0.30;;;;;;;29.46;54.81;97928.78;15279727;19;20022;-58
2022/06/25 16:22:53;;;;;;;0.40;0.35;;;;;;;28.99;54.24;97929.34;15279940;19;20113;-57
2022/06/25 16:28:01;;;;;;;0.47;0.20;;;;;;;28.79;54.65;97935.91;15286011;19;20027;-58
2022/06/25 16:33:06;;;;;;;0.88;0.20;;;;;;;28.44;55.16;97929.56;15277809;19;20019;-57
2022/06/25 16:38:11;;;;;;;0.40;0.30;;;;;;;28.17;55.92;97930.91;15277994;19;20030;-56
2022/06/25 16:43:18;;;;;;;0.52;0.30;;;;;;;28.08;56.20;97932.59;15280018;19;20014;-57
2022/06/25 16:48:24;;;;;;;0.93;0.25;;;;;;;27.90;57.64;97925.81;15270105;19;20958;-56
2022/06/25 16:53:29;;;;;;;0.68;0.20;;;;;;;27.78;58.18;97929.75;15277298;19;20038;-56
2022/06/25 16:58:39;;;;;;;0.30;0.20;;;;;;;27.53;57.81;97933.53;15278486;19;20370;-56
2022/06/25 17:03:44;;;;;;;0.63;0.30;;;;;;;27.35;60.01;97924.72;15275927;19;20018;-56
2022/06/25 17:08:49;;;;;;;0.38;0.30;;;;;;;27.56;59.39;97927.44;15271935;19;20361;-56
2022/06/25 17:13:58;;;;;;;0.50;0.30;;;;;;;27.91;58.62;97939.38;15280025;19;20011;-56
2022/06/25 17:19:03;;;;;;;1.38;0.30;;;;;;;27.84;59.99;97938.88;15279652;19;20023;-56
2022/06/25 17:24:10;;;;;;;0.60;0.30;;;;;;;27.65;59.86;97934.00;15273351;19;20702;-55
2022/06/25 17:29:18;;;;;;;1.38;0.30;;;;;;;27.60;62.68;97938.75;15277435;19;20030;-52
2022/06/25 17:34:29;;;;;;;0.30;0.20;;;;;;;27.41;63.53;97941.28;15279292;19;20010;-56
2022/06/25 17:39:34;;;;;;;0.47;0.28;;;;;;;27.45;67.47;97943.22;15271339;19;20011;-56
2022/06/25 17:44:41;;;;;;;1.10;0.25;;;;;;;27.62;68.30;97940.09;15252519;19;20476;-55
2022/06/25 17:49:47;;;;;;;1.75;0.25;;;;;;;27.86;64.41;97946.91;15276986;19;20019;-56
2022/06/25 17:54:52;;;;;;;0.63;0.22;;;;;;;28.02;64.35;97948.44;15273718;19;20072;-55
2022/06/25 18:00:00;;;;;;;0.63;0.20;;;;;;;28.38;60.74;97942.66;15276602;19;20041;-56
2022/06/25 18:05:10;;;;;;;0.45;0.17;;;;;;;28.49;60.98;97948.94;15275438;19;20015;-55
2022/06/25 18:10:17;;;;;;;0.52;0.20;;;;;;;28.66;61.72;97947.66;15274318;19;20348;-56
2022/06/25 18:15:25;;;;;;;0.60;0.25;;;;;;;28.48;60.66;97952.81;15270036;19;20353;-57
2022/06/25 18:20:30;;;;;;;0.65;0.20;;;;;;;28.44;58.91;97954.50;15273888;19;20480;-55
2022/06/25 18:25:35;;;;;;;0.50;0.25;;;;;;;28.24;57.77;97956.34;15258698;19;20112;-55
2022/06/25 18:30:43;;;;;;;0.40;0.30;;;;;;;28.16;59.75;97954.19;15269529;19;20021;-55
2022/06/25 18:35:49;;;;;;;0.65;0.20;;;;;;;28.15;62.07;97958.09;15276422;19;20014;-54
2022/06/25 18:40:54;;;;;;;0.50;0.20;;;;;;;28.17;63.48;97950.28;15271494;19;20468;-56
2022/06/25 18:46:02;;;;;;;0.60;0.60;;;;;;;28.11;64.21;97955.03;15269692;19;20364;-56
2022/06/25 18:51:08;;;;;;;0.88;0.30;;;;;;;28.02;63.98;97958.69;15271638;19;20505;-55
2022/06/25 18:56:14;;;;;;;0.52;0.30;;;;;;;27.77;63.87;97955.78;15276926;19;20014;-52
2022/06/25 19:01:21;;;;;;;1.67;0.32;;;;;;;27.48;64.97;97956.50;15266987;19;20019;-56
2022/06/25 19:06:27;;;;;;;0.93;0.30;;;;;;;27.13;66.24;97968.50;15276806;19;20122;-56
2022/06/25 19:11:32;;;;;;;2.08;0.30;;;;;;;26.88;67.60;97971.06;15271941;19;20010;-55
2022/06/25 19:16:39;;;;;;;0.70;0.20;;;;;;;26.63;69.28;97980.19;15268266;19;20478;-57
2022/06/25 19:21:44;;;;;;;0.50;0.30;;;;;;;26.40;71.85;97987.91;15270861;19;20673;-56
2022/06/25 19:26:49;;;;;;;0.93;0.40;;;;;;;26.18;75.22;97992.84;15263362;19;20006;-56
2022/06/25 19:31:57;;;;;;;1.05;0.30;;;;;;;25.97;78.51;97992.78;15280352;19;20045;-56
2022/06/25 19:37:03;;;;;;;0.35;0.25;;;;;;;25.71;99.77;97995.47;15288194;19;20007;-57
2022/06/25 19:42:08;;;;;;;0.60;0.40;;;;;;;25.44;100.00;98007.53;15281633;19;20420;-55
2022/06/25 19:47:15;;;;;;;2.05;0.40;;;;;;;25.22;100.00;98005.75;15281931;19;20032;-57
2022/06/25 19:52:23;;;;;;;0.50;0.20;;;;;;;25.01;100.00;98003.94;15282377;19;20019;-56
2022/06/25 19:57:28;;;;;;;0.95;0.50;;;;;;;24.72;100.00;98012.59;15285706;19;20021;-56
2022/06/25 20:02:37;;;;;;;0.47;0.40;;;;;;;24.56;100.00;98011.59;15277229;19;20014;-57
2022/06/25 20:07:44;;;;;;;3.70;0.50;;;;;;;24.33;100.00;98010.03;15284042;19;20034;-56
2022/06/25 20:12:49;;;;;;;0.30;0.30;;;;;;;24.10;100.00;98012.00;15280136;19;20496;-56
2022/06/25 20:17:57;;;;;;;1.48;0.40;;;;;;;23.91;100.00;98017.84;15285439;19;20125;-55
2022/06/25 20:23:02;;;;;;;0.47;0.30;;;;;;;23.88;100.00;98021.13;15272784;19;20010;-55
2022/06/25 20:28:07;;;;;;;0.30;0.30;;;;;;;23.83;100.00;98019.13;15285428;19;20416;-55
2022/06/25 20:33:15;;;;;;;2.40;0.60;;;;;;;23.73;100.00;98026.44;15284250;19;20027;-52
2022/06/25 20:38:20;;;;;;;0.65;0.32;;;;;;;23.49;100.00;98023.94;15276253;19;20500;-55
2022/06/25 20:43:28;;;;;;;0.50;0.50;;;;;;;23.33;100.00;98015.50;15280603;19;20018;-54
2022/06/25 20:48:36;;;;;;;1.50;0.55;;;;;;;23.16;100.00;98020.19;15281061;19;20554;-55
2022/06/25 20:53:41;;;;;;;0.82;0.50;;;;;;;23.00;100.00;98024.63;15274903;19;20047;-56
2022/06/25 20:58:46;;;;;;;2.13;0.60;;;;;;;22.85;100.00;98014.25;15284150;19;20031;-85
2022/06/25 21:09:12;;;;;;;0.90;0.50;;;;;;;22.63;100.00;98017.75;15293741;19;20018;-85
2022/06/25 21:14:20;;;;;;;0.45;0.40;;;;;;;22.58;100.00;98017.66;15296490;19;20031;-85
2022/06/25 21:19:42;;;;;;;0.93;0.50;;;;;;;22.49;100.00;98013.69;15303427;19;20535;-85
2022/06/25 21:24:48;;;;;;;0.85;0.40;;;;;;;22.45;100.00;98010.59;15297785;19;20003;-86
2022/06/25 21:29:53;;;;;;;0.52;0.40;;;;;;;22.47;100.00;98014.75;15297290;19;20098;-85
2022/06/25 21:35:01;;;;;;;3.03;0.40;;;;;;;22.42;100.00;98025.63;15312390;19;20010;-84
2022/06/25 21:40:07;;;;;;;4.70;0.60;;;;;;;22.25;100.00;98022.03;15294346;19;20018;-85
2022/06/25 21:45:13;;;;;;;1.70;0.50;;;;;;;22.11;100.00;98018.78;15295139;19;20039;-84
2022/06/25 21:50:21;;;;;;;1.05;0.50;;;;;;;22.01;100.00;98022.16;15289996;19;20016;-85
2022/06/25 21:55:26;;;;;;;1.40;0.70;;;;;;;21.86;100.00;98039.16;15300010;19;20018;-83
2022/06/25 22:00:31;;;;;;;1.70;0.70;;;;;;;21.69;100.00;98037.16;15294779;19;20014;-83
2022/06/25 22:05:39;;;;;;;0.60;0.47;;;;;;;21.56;100.00;98040.16;15325426;19;20007;-83
2022/06/25 22:10:44;;;;;;;1.45;0.60;;;;;;;21.49;100.00;98045.75;15332246;19;20032;-82
2022/06/25 22:15:49;;;;;;;3.05;0.80;;;;;;;21.41;100.00;98051.63;15288559;19;20018;-83
2022/06/25 22:20:57;;;;;;;1.33;0.60;;;;;;;21.18;100.00;98047.84;15280897;19;20522;-84
2022/06/25 22:26:04;;;;;;;1.08;0.70;;;;;;;21.12;100.00;98039.75;15284843;19;20036;-84
2022/06/25 22:31:09;;;;;;;1.08;0.63;;;;;;;21.00;100.00;98046.06;15277174;19;20090;-84
2022/06/25 22:36:17;;;;;;;0.95;0.70;;;;;;;20.91;100.00;98037.38;15285931;19;20024;-85
2022/06/25 22:41:22;;;;;;;1.77;0.80;;;;;;;20.90;100.00;98045.84;15284588;19;20110;-83
2022/06/25 22:46:27;;;;;;;0.82;0.60;;;;;;;20.84;100.00;98046.78;15282304;19;20015;-85
2022/06/25 22:51:36;;;;;;;0.60;0.60;;;;;;;20.78;100.00;98052.13;15288491;19;20182;-84
2022/06/25 22:56:41;;;;;;;1.25;0.70;;;;;;;20.72;100.00;98057.69;15296202;19;20464;-82
2022/06/25 23:01:46;;;;;;;0.65;0.60;;;;;;;20.66;100.00;98053.16;15298849;19;20022;-85
2022/06/25 23:06:54;;;;;;;0.43;0.43;;;;;;;20.60;100.00;98053.03;15287630;19;20794;-61
2022/06/25 23:11:59;;;;;;;3.53;0.60;;;;;;;20.59;100.00;98048.63;15285146;19;20014;-61
2022/06/25 23:17:04;;;;;;;0.55;0.50;;;;;;;20.59;100.00;98050.53;15287988;19;20421;-61
2022/06/25 23:22:11;;;;;;;0.80;0.60;;;;;;;20.58;100.00;98055.16;15290583;19;20014;-61
2022/06/25 23:27:17;;;;;;;0.63;0.60;;;;;;;20.50;100.00;98050.06;15284387;19;20043;-63
2022/06/25 23:32:22;;;;;;;1.08;0.70;;;;;;;20.37;100.00;98053.81;15289689;19;20018;-56
2022/06/25 23:37:30;;;;;;;0.57;0.55;;;;;;;20.26;100.00;98047.25;15284757;19;20037;-62
2022/06/25 23:42:36;;;;;;;0.52;0.52;;;;;;;20.22;100.00;98048.78;15289141;19;20014;-60
2022/06/25 23:47:41;;;;;;;0.88;0.70;;;;;;;20.21;100.00;98049.84;15284644;19;20394;-58
2022/06/25 23:52:49;;;;;;;0.63;0.50;;;;;;;20.21;100.00;98054.50;15288622;19;20014;-60
2022/06/25 23:57:54;;;;;;;10.45;7.03;;;;;;;20.23;100.00;98047.72;15282979;19;20035;-60
